Time;durP1;ratioP1;P1;durP2;ratioP2;P2;SDS_P1;SDS_P2;PMS_P1;PMS_P2;Temp;Humidity;BMP_temperature;BMP_pressure;BME280_temperature;BME280_humidity;BME280_pressure;Samples;Min_cycle;Max_cycle;Signal;HPM_P1;HPM_P2
2022/10/05 00:00:38;;;;;;;13.18;5.38;;;;;;;;;;10242579;28;20510;-74
2022/10/05 00:05:38;;;;;;;6.00;4.80;;;;;;;;;;10241695;28;20023;-74
2022/10/05 00:10:40;;;;;;;7.82;5.35;;;;;;;;;;10242233;28;20023;-75
2022/10/05 00:15:40;;;;;;;6.60;4.80;;;;;;;;;;10244314;28;20418;-73
2022/10/05 00:20:41;;;;;;;7.22;4.82;;;;;;;;;;10241764;28;20098;-73
2022/10/05 00:25:41;;;;;;;9.70;5.95;;;;;;;;;;10242367;28;20082;-73
2022/10/05 00:30:42;;;;;;;6.68;5.43;;;;;;;;;;10240882;28;20489;-76
2022/10/05 00:35:42;;;;;;;6.97;5.23;;;;;;;;;;10243239;28;20114;-76
2022/10/05 00:41:01;;;;;;;9.07;5.65;;;;;;;;;;10240971;28;20034;-77
2022/10/05 00:46:01;;;;;;;6.97;5.72;;;;;;;;;;10240653;28;20023;-75
2022/10/05 00:51:07;;;;;;;13.85;6.10;;;;;;;;;;10242583;28;20027;-79
2022/10/05 00:56:10;;;;;;;7.78;5.95;;;;;;;;;;10241632;28;20759;-75
2022/10/05 01:01:16;;;;;;;8.90;5.25;;;;;;;;;;10240243;28;20051;-76
2022/10/05 01:06:25;;;;;;;8.93;5.57;;;;;;;;;;10241128;28;20129;-77
2022/10/05 01:11:35;;;;;;;11.30;6.43;;;;;;;;;;10240418;28;20425;-78
2022/10/05 01:16:50;;;;;;;16.63;6.28;;;;;;;;;;10240596;28;20058;-75
2022/10/05 01:21:53;;;;;;;12.25;6.10;;;;;;;;;;10238795;28;20530;-75
2022/10/05 01:27:03;;;;;;;9.02;6.38;;;;;;;;;;10224236;28;20038;-78
2022/10/05 01:32:08;;;;;;;9.88;6.00;;;;;;;;;;10238777;28;20027;-77
2022/10/05 01:37:18;;;;;;;9.52;5.75;;;;;;;;;;10240617;28;20023;-74
2022/10/05 01:42:23;;;;;;;13.55;7.00;;;;;;;;;;10237891;28;20020;-72
2022/10/05 01:47:23;;;;;;;17.45;8.80;;;;;;;;;;10239808;28;20023;-76
2022/10/05 01:52:26;;;;;;;17.85;9.60;;;;;;;;;;10240381;28;20078;-76
2022/10/05 01:57:41;;;;;;;15.30;9.35;;;;;;;;;;10239420;28;20051;-77
2022/10/05 02:02:45;;;;;;;15.55;9.93;;;;;;;;;;10238639;28;20106;-76
2022/10/05 02:07:59;;;;;;;18.35;10.30;;;;;;;;;;10239427;28;20016;-77
2022/10/05 02:13:01;;;;;;;14.38;8.85;;;;;;;;;;10254151;28;20065;-75
2022/10/05 02:18:05;;;;;;;16.10;9.10;;;;;;;;;;10239344;28;20545;-79
2022/10/05 02:23:16;;;;;;;17.73;8.35;;;;;;;;;;10239162;28;20545;-76
2022/10/05 02:28:20;;;;;;;22.05;8.60;;;;;;;;;;10237878;28;20070;-74
2022/10/05 02:33:25;;;;;;;16.95;9.68;;;;;;;;;;10244055;28;20026;-76
2022/10/05 02:38:25;;;;;;;20.83;10.25;;;;;;;;;;10244382;28;20027;-73
2022/10/05 02:43:40;;;;;;;15.30;10.30;;;;;;;;;;10247335;28;20023;-73
2022/10/05 02:48:59;;;;;;;12.95;6.90;;;;;;;;;;10245705;28;20101;-72
2022/10/05 02:54:02;;;;;;;15.80;7.75;;;;;;;;;;10247244;28;20648;-72
2022/10/05 02:59:10;;;;;;;12.30;7.97;;;;;;;;;;10244234;28;20142;-76
2022/10/05 03:04:10;;;;;;;13.00;7.43;;;;;;;;;;10246018;28;20074;-75
2022/10/05 03:09:12;;;;;;;18.90;7.72;;;;;;;;;;10246863;28;20019;-74
2022/10/05 03:14:18;;;;;;;14.48;8.48;;;;;;;;;;10246562;28;20025;-76
2022/10/05 03:19:24;;;;;;;13.43;8.80;;;;;;;;;;10243448;28;20465;-77
2022/10/05 03:24:34;;;;;;;16.63;7.55;;;;;;;;;;10243586;28;20048;-76
2022/10/05 03:29:39;;;;;;;11.13;7.40;;;;;;;;;;10244684;28;20111;-77
2022/10/05 03:34:51;;;;;;;14.05;7.88;;;;;;;;;;10242429;28;20475;-77
2022/10/05 03:40:10;;;;;;;16.00;8.18;;;;;;;;;;10243944;28;20022;-78
2022/10/05 03:45:29;;;;;;;14.88;8.27;;;;;;;;;;10243807;28;20457;-80
2022/10/05 03:50:49;;;;;;;16.40;9.57;;;;;;;;;;10243251;28;20031;-74
2022/10/05 03:55:58;;;;;;;13.38;9.02;;;;;;;;;;10242123;28;20093;-74
2022/10/05 04:01:00;;;;;;;23.35;9.27;;;;;;;;;;10242750;28;20143;-74
2022/10/05 04:06:10;;;;;;;27.45;11.02;;;;;;;;;;10242036;28;20030;-76
2022/10/05 04:11:13;;;;;;;16.88;10.60;;;;;;;;;;10241542;28;20039;-73
2022/10/05 04:16:16;;;;;;;33.53;11.07;;;;;;;;;;10241578;28;20034;-79
2022/10/05 04:21:19;;;;;;;21.92;10.02;;;;;;;;;;10255638;28;20155;-76
2022/10/05 04:26:25;;;;;;;20.83;11.63;;;;;;;;;;10235633;28;20035;-73
2022/10/05 04:31:51;;;;;;;20.58;10.73;;;;;;;;;;10238383;28;20030;-75
2022/10/05 04:36:57;;;;;;;19.67;10.73;;;;;;;;;;10240369;28;20537;-74
2022/10/05 04:41:57;;;;;;;19.58;9.65;;;;;;;;;;10238925;28;20019;-75
2022/10/05 04:47:07;;;;;;;24.77;11.43;;;;;;;;;;10239628;28;20534;-73
2022/10/05 04:52:07;;;;;;;20.30;10.85;;;;;;;;;;10238107;28;20043;-76
2022/10/05 04:57:30;;;;;;;21.40;10.98;;;;;;;;;;10239304;28;20473;-77
2022/10/05 05:02:31;;;;;;;30.77;11.13;;;;;;;;;;10225951;28;20038;-74
2022/10/05 05:07:51;;;;;;;22.27;11.00;;;;;;;;;;10239640;28;20513;-73
2022/10/05 05:12:54;;;;;;;26.50;12.70;;;;;;;;;;10229593;28;20065;-73
2022/10/05 05:18:14;;;;;;;20.33;10.05;;;;;;;;;;10240617;28;20031;-76
2022/10/05 05:23:34;;;;;;;20.55;10.45;;;;;;;;;;10227851;28;20023;-74
2022/10/05 05:28:46;;;;;;;35.08;9.70;;;;;;;;;;10230838;28;20059;-75
2022/10/05 05:33:49;;;;;;;20.15;9.55;;;;;;;;;;10237162;28;20028;-73
2022/10/05 05:38:49;;;;;;;15.38;9.82;;;;;;;;;;10238395;28;20055;-77
2022/10/05 05:43:51;;;;;;;17.35;8.98;;;;;;;;;;10238825;28;20532;-75
2022/10/05 05:48:52;;;;;;;15.30;9.00;;;;;;;;;;10238173;28;20081;-73
2022/10/05 05:54:04;;;;;;;23.02;8.90;;;;;;;;;;10238666;28;20039;-74
2022/10/05 05:59:23;;;;;;;28.85;9.20;;;;;;;;;;10219327;29;20075;-73
2022/10/05 06:04:44;;;;;;;19.90;9.15;;;;;;;;;;10237111;28;20486;-79
2022/10/05 06:09:49;;;;;;;20.23;8.80;;;;;;;;;;10245643;28;20035;-73
2022/10/05 06:14:51;;;;;;;17.50;6.93;;;;;;;;;;10245603;28;20158;-76
2022/10/05 06:19:53;;;;;;;16.05;7.30;;;;;;;;;;10244094;28;20087;-75
2022/10/05 06:25:12;;;;;;;10.20;6.50;;;;;;;;;;10243557;28;20071;-74
2022/10/05 06:30:13;;;;;;;20.60;6.18;;;;;;;;;;10245461;28;20398;-78
2022/10/05 06:35:14;;;;;;;11.00;5.72;;;;;;;;;;10245824;28;20050;-74
2022/10/05 06:40:21;;;;;;;11.38;6.47;;;;;;;;;;10245115;28;20113;-77
2022/10/05 06:45:21;;;;;;;13.07;6.63;;;;;;;;;;10245351;28;20047;-78
2022/10/05 06:50:21;;;;;;;26.33;9.00;;;;;;;;;;10244853;28;20027;-77
2022/10/05 06:55:24;;;;;;;21.77;9.77;;;;;;;;;;10245381;28;20577;-72
2022/10/05 07:00:39;;;;;;;23.33;8.68;;;;;;;;;;10238490;28;20736;-76
2022/10/05 07:05:39;;;;;;;24.38;10.15;;;;;;;;;;10238397;28;20106;-75
2022/10/05 07:10:59;;;;;;;22.90;10.90;;;;;;;;;;10228591;29;20047;-73
2022/10/05 07:16:18;;;;;;;16.85;9.30;;;;;;;;;;10210262;28;20102;-75
2022/10/05 07:21:38;;;;;;;34.00;9.98;;;;;;;;;;10241119;28;20345;-73
2022/10/05 07:26:38;;;;;;;16.02;9.70;;;;;;;;;;10232178;29;20028;-73
2022/10/05 07:31:41;;;;;;;30.38;11.20;;;;;;;;;;10232803;28;20027;-76
2022/10/05 07:42:12;;;;;;;18.63;9.43;;;;;;;;;;10242009;28;20454;-74
2022/10/05 07:47:23;;;;;;;23.13;10.47;;;;;;;;;;10233847;28;20027;-73
2022/10/05 07:52:29;;;;;;;17.83;9.70;;;;;;;;;;10222861;28;20361;-74
2022/10/05 07:57:42;;;;;;;19.52;9.98;;;;;;;;;;10248946;28;20481;-77
2022/10/05 08:02:54;;;;;;;16.88;9.55;;;;;;;;;;10228136;28;20309;-78
2022/10/05 08:08:16;;;;;;;15.35;9.00;;;;;;;;;;10240678;28;20074;-73
2022/10/05 08:13:35;;;;;;;21.15;9.68;;;;;;;;;;10218301;28;20577;-76
2022/10/05 08:18:38;;;;;;;15.93;8.32;;;;;;;;;;10228911;28;20486;-73
2022/10/05 08:23:47;;;;;;;17.45;7.40;;;;;;;;;;10229075;28;20035;-73
2022/10/05 08:29:09;;;;;;;13.68;5.72;;;;;;;;;;10226336;28;20059;-75
2022/10/05 08:34:45;;;;;;;12.20;6.53;;;;;;;;;;10217861;29;20035;-74
2022/10/05 08:40:03;;;;;;;7.40;5.35;;;;;;;;;;10148545;28;20089;-73
2022/10/05 08:45:23;;;;;;;12.75;5.80;;;;;;;;;;10234807;28;20027;-79
2022/10/05 08:50:41;;;;;;;13.10;6.15;;;;;;;;;;10229523;28;20043;-74
2022/10/05 08:55:50;;;;;;;9.25;5.63;;;;;;;;;;10231757;28;20036;-73
2022/10/05 09:00:51;;;;;;;12.20;5.90;;;;;;;;;;10225121;28;20198;-75
2022/10/05 09:06:06;;;;;;;12.63;5.80;;;;;;;;;;10226977;28;20043;-76
2022/10/05 09:11:25;;;;;;;10.38;5.18;;;;;;;;;;10230532;28;20023;-75
2022/10/05 09:16:35;;;;;;;6.80;4.40;;;;;;;;;;10246152;28;20035;-76
2022/10/05 09:21:45;;;;;;;9.65;3.47;;;;;;;;;;10233726;28;20422;-77
2022/10/05 09:26:56;;;;;;;3.95;2.10;;;;;;;;;;10227898;28;20054;-74
2022/10/05 09:31:56;;;;;;;6.90;3.42;;;;;;;;;;10236061;28;20090;-75
2022/10/05 09:37:06;;;;;;;13.77;3.90;;;;;;;;;;10233812;28;20485;-74
2022/10/05 09:42:14;;;;;;;4.38;1.80;;;;;;;;;;10234298;28;20027;-73
2022/10/05 09:47:33;;;;;;;5.30;2.08;;;;;;;;;;10232462;28;20514;-76
2022/10/05 09:52:43;;;;;;;4.57;1.80;;;;;;;;;;10235260;28;20113;-77
2022/10/05 09:57:44;;;;;;;5.57;1.73;;;;;;;;;;10235037;28;20059;-74
2022/10/05 10:03:01;;;;;;;5.22;1.73;;;;;;;;;;10233408;28;20027;-73
2022/10/05 10:08:03;;;;;;;4.20;1.60;;;;;;;;;;10249248;28;20027;-73
2022/10/05 10:13:06;;;;;;;3.83;1.45;;;;;;;;;;10232601;28;20041;-72
2022/10/05 10:18:12;;;;;;;1.85;0.77;;;;;;;;;;10233015;28;20584;-72
2022/10/05 10:23:33;;;;;;;7.18;1.00;;;;;;;;;;10232311;28;20033;-73
2022/10/05 10:28:40;;;;;;;2.55;1.20;;;;;;;;;;10216378;29;20127;-73
2022/10/05 10:33:40;;;;;;;;;;;;;;;;;;10232899;28;20405;-74
2022/10/05 10:38:50;;;;;;;1.90;0.70;;;;;;;;;;10232556;28;19961;-73
2022/10/05 10:44:09;;;;;;;2.88;0.73;;;;;;;;;;10233642;28;20062;-77
2022/10/05 10:49:14;;;;;;;1.25;0.80;;;;;;;;;;10231291;28;20033;-73
2022/10/05 10:54:33;;;;;;;2.85;0.82;;;;;;;;;;10237067;28;20106;-73
2022/10/05 11:00:01;;;;;;;1.77;0.50;;;;;;;;;;10234884;28;20609;-73
2022/10/05 11:05:05;;;;;;;0.93;0.40;;;;;;;;;;10240872;28;20027;-73
2022/10/05 11:10:18;;;;;;;0.63;0.43;;;;;;;;;;10238625;28;20019;-73
2022/10/05 11:15:37;;;;;;;0.82;0.60;;;;;;;;;;10237874;28;20015;-72
2022/10/05 11:20:57;;;;;;;1.67;0.77;;;;;;;;;;10241542;28;20074;-73
2022/10/05 11:26:10;;;;;;;3.42;0.80;;;;;;;;;;10236434;28;20164;-73
2022/10/05 11:31:10;;;;;;;1.58;0.80;;;;;;;;;;10241419;29;20049;-72
2022/10/05 11:36:13;;;;;;;2.58;0.90;;;;;;;;;;10242013;28;20537;-77
2022/10/05 11:41:27;;;;;;;1.50;0.90;;;;;;;;;;10238603;28;20031;-73
2022/10/05 11:46:46;;;;;;;0.98;0.57;;;;;;;;;;10221485;28;20668;-76
2022/10/05 11:51:52;;;;;;;5.53;1.02;;;;;;;;;;10241455;28;20403;-76
2022/10/05 11:56:55;;;;;;;2.75;0.90;;;;;;;;;;10230887;28;20204;-72
2022/10/05 12:02:14;;;;;;;2.10;0.98;;;;;;;;;;10234485;28;20047;-76
2022/10/05 12:07:21;;;;;;;3.22;1.30;;;;;;;;;;10239376;28;20439;-80
2022/10/05 12:12:26;;;;;;;3.75;1.20;;;;;;;;;;10230321;29;20516;-74
2022/10/05 12:17:38;;;;;;;2.67;0.93;;;;;;;;;;10237438;28;20015;-73
2022/10/05 12:22:41;;;;;;;5.63;1.00;;;;;;;;;;10239028;28;20027;-74
2022/10/05 12:27:45;;;;;;;1.20;0.93;;;;;;;;;;10236156;28;20035;-74
2022/10/05 12:32:52;;;;;;;1.52;1.05;;;;;;;;;;10239819;28;20399;-78
2022/10/05 12:38:04;;;;;;;1.92;0.82;;;;;;;;;;10237773;28;20138;-73
2022/10/05 12:43:18;;;;;;;5.28;1.10;;;;;;;;;;10233483;28;20482;-73
2022/10/05 12:48:21;;;;;;;4.35;1.13;;;;;;;;;;10253430;28;20020;-76
2022/10/05 12:53:37;;;;;;;2.47;1.05;;;;;;;;;;10237452;28;20034;-73
2022/10/05 12:58:37;;;;;;;2.17;1.30;;;;;;;;;;10239801;28;20043;-73
2022/10/05 13:03:45;;;;;;;2.17;0.90;;;;;;;;;;10332038;23;20050;-74
2022/10/05 13:08:50;;;;;;;1.27;0.88;;;;;;;;;;10276467;28;20029;-78
2022/10/05 13:14:09;;;;;;;2.85;1.10;;;;;;;;;;10273812;28;20027;-78
2022/10/05 13:19:24;;;;;;;4.05;1.50;;;;;;;;;;10292575;28;20114;-76
2022/10/05 13:24:28;;;;;;;7.95;2.15;;;;;;;;;;10272309;28;20038;-74
2022/10/05 13:29:45;;;;;;;5.32;1.23;;;;;;;;;;10284117;28;20572;-80
2022/10/05 13:35:01;;;;;;;3.03;1.02;;;;;;;;;;10285394;28;20453;-75
2022/10/05 13:40:04;;;;;;;3.85;1.63;;;;;;;;;;10274991;28;20097;-75
2022/10/05 13:45:22;;;;;;;5.68;2.03;;;;;;;;;;10271679;28;20054;-75
2022/10/05 13:50:25;;;;;;;1.67;0.93;;;;;;;;;;10273447;28;20046;-73
2022/10/05 13:55:44;;;;;;;5.72;1.92;;;;;;;;;;10273284;28;20445;-73
2022/10/05 14:00:49;;;;;;;1.33;0.95;;;;;;;;;;10274575;28;20147;-74
2022/10/05 14:05:56;;;;;;;3.25;1.52;;;;;;;;;;10287651;28;20485;-74
2022/10/05 14:10:57;;;;;;;7.10;1.80;;;;;;;;;;10273052;28;20031;-76
2022/10/05 14:16:26;;;;;;;4.85;1.13;;;;;;;;;;10252290;28;21229;-74
2022/10/05 14:21:31;;;;;;;3.55;1.02;;;;;;;;;;10255613;28;20532;-74
2022/10/05 14:26:33;;;;;;;7.88;1.30;;;;;;;;;;10274802;28;20038;-74
2022/10/05 14:31:34;;;;;;;2.38;1.20;;;;;;;;;;10278883;28;20045;-75
2022/10/05 14:36:35;;;;;;;3.88;1.52;;;;;;;;;;10274687;28;20034;-74
2022/10/05 14:41:40;;;;;;;2.20;1.10;;;;;;;;;;10277682;28;20417;-75
2022/10/05 14:47:01;;;;;;;2.60;1.30;;;;;;;;;;10280425;28;20719;-74
2022/10/05 14:52:40;;;;;;;8.68;3.60;;;;;;;;;;10265519;28;20102;-76
2022/10/05 14:57:40;;;;;;;;;;;;;;;;;;10132674;29;20042;-77
2022/10/05 15:02:43;;;;;;;5.18;1.25;;;;;;;;;;10239686;28;20036;-77
2022/10/05 15:07:47;;;;;;;4.20;1.58;;;;;;;;;;10276613;28;20063;-77
2022/10/05 15:12:47;;;;;;;5.53;1.20;;;;;;;;;;10277063;28;20019;-76
2022/10/05 15:17:51;;;;;;;4.13;1.50;;;;;;;;;;10277462;28;20034;-76
2022/10/05 15:22:51;;;;;;;2.28;1.33;;;;;;;;;;10279688;22;20309;-74
2022/10/05 15:28:00;;;;;;;6.78;1.55;;;;;;;;;;10237791;28;20035;-74
2022/10/05 15:33:17;;;;;;;6.20;1.50;;;;;;;;;;10239126;28;20030;-78
2022/10/05 15:38:23;;;;;;;4.57;1.40;;;;;;;;;;10238650;28;20525;-78
2022/10/05 15:43:24;;;;;;;8.90;1.77;;;;;;;;;;10332474;23;20058;-73
2022/10/05 15:48:35;;;;;;;10.20;2.30;;;;;;;;;;10299511;28;20045;-79
2022/10/05 15:53:42;;;;;;;10.38;1.95;;;;;;;;;;10292082;28;20022;-80
2022/10/05 15:59:07;;;;;;;8.38;1.88;;;;;;;;;;10294718;28;20138;-79
2022/10/05 16:04:10;;;;;;;7.18;1.60;;;;;;;;;;10291315;28;20054;-79
2022/10/05 16:09:23;;;;;;;6.15;1.00;;;;;;;;;;10294783;28;20026;-79
2022/10/05 16:14:38;;;;;;;8.68;1.60;;;;;;;;;;10293991;28;20026;-78
2022/10/05 16:19:55;;;;;;;7.53;1.92;;;;;;;;;;10293770;28;20090;-78
2022/10/05 16:25:14;;;;;;;3.40;1.75;;;;;;;;;;10321613;28;20030;-78
2022/10/05 16:30:16;;;;;;;5.45;1.60;;;;;;;;;;10319173;28;20404;-77
2022/10/05 16:35:23;;;;;;;8.30;1.85;;;;;;;;;;10293068;28;20030;-73
2022/10/05 16:40:43;;;;;;;3.28;1.83;;;;;;;;;;10294198;28;20081;-75
2022/10/05 16:46:06;;;;;;;5.22;2.17;;;;;;;;;;10291039;28;20088;-77
2022/10/05 16:51:06;;;;;;;10.57;3.30;;;;;;;;;;10289753;28;20074;-78
2022/10/05 16:56:10;;;;;;;7.80;3.70;;;;;;;;;;10292767;28;20103;-79
2022/10/05 17:01:18;;;;;;;22.15;3.88;;;;;;;;;;10294222;28;20396;-78
2022/10/05 17:06:26;;;;;;;10.27;3.92;;;;;;;;;;10283293;28;20041;-78
2022/10/05 17:11:33;;;;;;;9.82;4.07;;;;;;;;;;10285083;28;20022;-78
2022/10/05 17:16:45;;;;;;;11.60;4.25;;;;;;;;;;10277246;28;20037;-77
2022/10/05 17:22:02;;;;;;;9.75;4.70;;;;;;;;;;10281584;28;20026;-78
2022/10/05 17:27:06;;;;;;;11.63;4.90;;;;;;;;;;10274159;28;20027;-74
2022/10/05 17:32:09;;;;;;;54.00;43.22;;;;;;;;;;10270404;28;20032;-76
2022/10/05 17:37:30;;;;;;;244.80;228.23;;;;;;;;;;10284172;28;20057;-73
2022/10/05 17:42:33;;;;;;;749.55;691.55;;;;;;;;;;10287470;28;20081;-73
2022/10/05 17:47:52;;;;;;;9.90;4.38;;;;;;;;;;10284578;28;20031;-72
2022/10/05 17:58:31;;;;;;;18.77;6.90;;;;;;;;;;10283259;28;20019;-74
2022/10/05 18:03:34;;;;;;;13.07;6.07;;;;;;;;;;10294540;28;20031;-74
2022/10/05 18:08:37;;;;;;;34.65;30.83;;;;;;;;;;10305458;28;20556;-73
2022/10/05 18:13:42;;;;;;;10.10;6.03;;;;;;;;;;10296555;28;20031;-73
2022/10/05 18:18:43;;;;;;;12.82;6.68;;;;;;;;;;10278091;28;20022;-73
2022/10/05 18:23:48;;;;;;;17.87;7.17;;;;;;;;;;10295703;28;20019;-71
2022/10/05 18:30:01;;;;;;;14.38;7.45;;;;;;;;;;10294463;28;20034;-72
2022/10/05 18:34:38;;;;;;;;;;;;;;;;;;10260640;28;20511;-74
2022/10/05 18:39:57;;;;;;;20.45;9.00;;;;;;;;;;10291768;28;19925;-77
2022/10/05 18:45:05;;;;;;;18.38;8.45;;;;;;;;;;10294170;28;20058;-72
2022/10/05 18:50:05;;;;;;;22.13;7.17;;;;;;;;;;10315266;28;20536;-72
2022/10/05 18:55:05;;;;;;;21.00;8.10;;;;;;;;;;10290203;28;20019;-74
2022/10/05 19:00:06;;;;;;;21.33;8.05;;;;;;;;;;10296485;28;20037;-76
2022/10/05 19:05:29;;;;;;;13.80;7.50;;;;;;;;;;10299273;28;20405;-75
2022/10/05 19:10:35;;;;;;;14.48;6.28;;;;;;;;;;10255162;28;20066;-72
2022/10/05 19:15:43;;;;;;;19.05;6.47;;;;;;;;;;10295662;28;20027;-76
2022/10/05 19:21:02;;;;;;;15.43;7.45;;;;;;;;;;10317647;28;20125;-73
2022/10/05 19:26:34;;;;;;;12.00;5.60;;;;;;;;;;10318856;28;20019;-73
2022/10/05 19:31:47;;;;;;;14.00;7.05;;;;;;;;;;10284831;23;20132;-75
2022/10/05 19:37:00;;;;;;;14.45;6.50;;;;;;;;;;10275608;28;20046;-74
2022/10/05 19:42:19;;;;;;;12.45;6.35;;;;;;;;;;10283828;28;20077;-74
2022/10/05 19:47:38;;;;;;;31.08;12.00;;;;;;;;;;10279554;28;20149;-72
2022/10/05 19:52:42;;;;;;;17.02;8.02;;;;;;;;;;10278760;28;20034;-75
2022/10/05 19:57:47;;;;;;;13.27;7.35;;;;;;;;;;10273931;28;20030;-77
2022/10/05 20:02:49;;;;;;;19.27;8.07;;;;;;;;;;10275957;28;20045;-77
2022/10/05 20:07:49;;;;;;;15.65;8.73;;;;;;;;;;10276973;28;20509;-76
2022/10/05 20:12:51;;;;;;;20.95;10.65;;;;;;;;;;10276931;28;20019;-76
2022/10/05 20:23:17;;;;;;;14.27;7.60;;;;;;;;;;10277799;28;20110;-77
2022/10/05 20:28:29;;;;;;;11.95;6.30;;;;;;;;;;10273626;28;20228;-76
2022/10/05 20:33:29;;;;;;;9.27;5.50;;;;;;;;;;10275818;28;20582;-76
2022/10/05 20:38:34;;;;;;;14.43;6.10;;;;;;;;;;10292531;28;20525;-75
2022/10/05 20:43:37;;;;;;;9.10;5.10;;;;;;;;;;10276420;28;20027;-72
2022/10/05 20:48:38;;;;;;;8.05;4.60;;;;;;;;;;10273795;28;20050;-73
2022/10/05 20:53:38;;;;;;;11.07;5.85;;;;;;;;;;10276248;28;20045;-74
2022/10/05 20:58:39;;;;;;;10.57;6.40;;;;;;;;;;10275327;28;20027;-73
2022/10/05 21:03:41;;;;;;;16.77;7.88;;;;;;;;;;10276653;28;20035;-76
2022/10/05 21:08:41;;;;;;;12.88;5.45;;;;;;;;;;10275884;28;20109;-73
2022/10/05 21:13:44;;;;;;;12.45;5.57;;;;;;;;;;10273426;28;20161;-76
2022/10/05 21:18:47;;;;;;;13.07;5.65;;;;;;;;;;10275281;28;20034;-75
2022/10/05 21:23:47;;;;;;;9.95;5.25;;;;;;;;;;10274850;28;20113;-78
2022/10/05 21:28:48;;;;;;;8.07;4.88;;;;;;;;;;10269625;28;20403;-76
2022/10/05 21:33:48;;;;;;;9.55;4.80;;;;;;;;;;10273815;28;20043;-77
2022/10/05 21:38:49;;;;;;;11.10;5.25;;;;;;;;;;10274693;28;20110;-73
2022/10/05 21:43:49;;;;;;;13.93;5.05;;;;;;;;;;10265433;28;20122;-76
2022/10/05 21:48:49;;;;;;;8.10;4.85;;;;;;;;;;10276367;28;20154;-77
2022/10/05 21:53:51;;;;;;;5.97;4.10;;;;;;;;;;10264244;28;20030;-74
2022/10/05 21:58:52;;;;;;;9.07;4.75;;;;;;;;;;10269242;28;20019;-78
2022/10/05 22:03:52;;;;;;;9.40;3.70;;;;;;;;;;10267893;28;20042;-77
2022/10/05 22:08:52;;;;;;;10.82;3.85;;;;;;;;;;10277578;28;20110;-75
2022/10/05 22:13:53;;;;;;;7.80;3.70;;;;;;;;;;10278712;28;20074;-78
2022/10/05 22:18:53;;;;;;;4.93;3.58;;;;;;;;;;10279473;28;20027;-77
2022/10/05 22:23:53;;;;;;;9.95;4.95;;;;;;;;;;10279901;28;20118;-79
2022/10/05 22:28:55;;;;;;;8.15;3.50;;;;;;;;;;10280547;28;20077;-82
2022/10/05 22:33:55;;;;;;;8.80;3.42;;;;;;;;;;10279040;28;20072;-79
2022/10/05 22:38:55;;;;;;;9.17;4.00;;;;;;;;;;10278801;28;20033;-78
2022/10/05 22:43:56;;;;;;;9.05;3.30;;;;;;;;;;10279066;28;20282;-76
2022/10/05 22:48:56;;;;;;;6.30;3.47;;;;;;;;;;10282988;28;20134;-76
2022/10/05 22:53:56;;;;;;;6.60;3.92;;;;;;;;;;10285956;28;20015;-79
2022/10/05 22:58:57;;;;;;;7.88;3.50;;;;;;;;;;10285877;28;20038;-73
2022/10/05 23:03:57;;;;;;;7.32;2.53;;;;;;;;;;10286890;28;20033;-82
2022/10/05 23:08:57;;;;;;;3.85;2.03;;;;;;;;;;10284831;28;20022;-74
2022/10/05 23:13:59;;;;;;;3.10;1.83;;;;;;;;;;10286241;28;20034;-72
2022/10/05 23:18:59;;;;;;;2.00;1.77;;;;;;;;;;10269288;28;20031;-76
2022/10/05 23:23:59;;;;;;;3.38;1.73;;;;;;;;;;10284776;28;20116;-75
2022/10/05 23:29:00;;;;;;;3.10;1.87;;;;;;;;;;10284987;28;20146;-75
2022/10/05 23:34:00;;;;;;;6.45;2.30;;;;;;;;;;10284318;28;20047;-77
2022/10/05 23:39:00;;;;;;;2.73;2.13;;;;;;;;;;10284186;28;20041;-76
2022/10/05 23:44:00;;;;;;;3.00;1.97;;;;;;;;;;10283826;28;20113;-76
2022/10/05 23:49:01;;;;;;;5.95;2.40;;;;;;;;;;10283578;28;20015;-79
2022/10/05 23:54:01;;;;;;;2.72;2.08;;;;;;;;;;10284987;28;20018;-76
2022/10/05 23:59:02;;;;;;;5.20;2.05;;;;;;;;;;10283866;28;20058;-74
